createdAt,value
2017-09-09T00:00:12.571Z,81.68
2017-09-09T00:01:12.316Z,81.68
2017-09-09T00:02:12.006Z,81.97
2017-09-09T00:03:12.370Z,82.26
2017-09-09T00:04:12.002Z,82.35
2017-09-09T00:05:13.398Z,82.26
2017-09-09T00:06:12.310Z,82.93
2017-09-09T00:07:12.002Z,82.83
2017-09-09T00:08:12.309Z,83.89
2017-09-09T00:09:12.002Z,83.69
2017-09-09T00:10:12.805Z,84.27
2017-09-09T00:11:12.009Z,84.55
2017-09-09T00:12:12.004Z,84.36
2017-09-09T00:13:12.310Z,84.55
2017-09-09T00:14:12.310Z,84.55
2017-09-09T00:15:12.728Z,85.13
2017-09-09T00:16:12.005Z,84.75
2017-09-09T00:17:12.311Z,84.75
2017-09-09T00:18:12.029Z,84.94
2017-09-09T00:19:12.003Z,84.65
2017-09-09T00:20:12.480Z,84.55
2017-09-09T00:21:12.302Z,84.65
2017-09-09T00:22:11.993Z,84.65
2017-09-09T00:23:12.301Z,84.55
2017-09-09T00:24:11.994Z,84.84
2017-09-09T00:25:12.502Z,84.55
2017-09-09T00:26:12.301Z,84.75
2017-09-09T00:27:11.990Z,84.55
2017-09-09T00:28:11.995Z,84.55
2017-09-09T00:29:11.990Z,84.52
2017-09-09T00:30:13.358Z,85.22
2017-09-09T00:31:12.313Z,85.22
2017-09-09T00:32:12.302Z,84.99
2017-09-09T00:33:12.309Z,85.13
2017-09-09T00:34:11.987Z,85.09
2017-09-09T00:35:13.313Z,85.32
2017-09-09T00:36:11.986Z,85.18
2017-09-09T00:37:11.992Z,86.23
2017-09-09T00:38:12.294Z,86.14
2017-09-09T00:39:11.986Z,85.66
2017-09-09T00:40:12.865Z,86.43
2017-09-09T00:41:12.289Z,85.85
2017-09-09T00:42:12.289Z,86.14
2017-09-09T00:43:11.977Z,85.94
2017-09-09T00:44:11.980Z,85.66
2017-09-09T00:45:13.195Z,86.43
2017-09-09T00:46:11.976Z,86.23
2017-09-09T00:47:11.975Z,86.52
2017-09-09T00:48:12.286Z,87.38
2017-09-09T00:49:12.284Z,87.48
2017-09-09T00:50:12.440Z,87.29
2017-09-09T00:51:11.976Z,87.38
2017-09-09T00:52:12.279Z,87.43
2017-09-09T00:53:12.279Z,87.82
2017-09-09T00:54:12.278Z,87.62
2017-09-09T00:55:12.662Z,88.48
2017-09-09T00:56:12.274Z,88.39
2017-09-09T00:57:12.271Z,88.29
2017-09-09T00:58:12.276Z,88.01
2017-09-09T00:59:11.965Z,87.53
2017-09-09T01:00:13.199Z,88.1
2017-09-09T01:01:11.968Z,87.62
2017-09-09T01:02:11.964Z,87.72
2017-09-09T01:03:12.270Z,88.29
2017-09-09T01:04:12.268Z,88.87
2017-09-09T01:05:13.405Z,88.48
2017-09-09T01:06:12.264Z,89.82
2017-09-09T01:07:12.262Z,90.01
2017-09-09T01:08:12.263Z,89.53
2017-09-09T01:09:11.950Z,90.3
2017-09-09T01:10:13.266Z,90.3
2017-09-09T01:11:11.946Z,90.3
2017-09-09T01:12:12.260Z,90.11
2017-09-09T01:13:12.253Z,90.39
2017-09-09T01:14:12.263Z,90.78
2017-09-09T01:15:12.551Z,90.78
2017-09-09T01:16:12.252Z,91.5
2017-09-09T01:17:12.267Z,91.54
2017-09-09T01:18:12.262Z,90.73
2017-09-09T01:19:12.257Z,91.21
2017-09-09T01:20:12.852Z,91.54
2017-09-09T01:21:11.929Z,91.3
2017-09-09T01:22:11.928Z,91.54
2017-09-09T01:23:12.234Z,91.93
2017-09-09T01:24:11.927Z,91.59
2017-09-09T01:25:13.265Z,92.07
2017-09-09T01:26:11.922Z,92.36
2017-09-09T01:27:12.227Z,92.07
2017-09-09T01:28:12.230Z,92.26
2017-09-09T01:29:12.224Z,92.45
2017-09-09T01:30:12.863Z,92.83
2017-09-09T01:31:11.912Z,92.64
2017-09-09T01:32:12.225Z,92.83
2017-09-09T01:33:12.216Z,92.93
2017-09-09T01:34:11.913Z,92.83
2017-09-09T01:35:13.607Z,93.12
2017-09-09T01:36:11.902Z,92.93
2017-09-09T01:37:12.224Z,92.55
2017-09-09T01:38:11.901Z,93.12
2017-09-09T01:39:12.212Z,92.16
2017-09-09T01:40:13.297Z,91.97
2017-09-09T01:41:12.222Z,92.26
2017-09-09T01:42:11.902Z,92.07
2017-09-09T01:43:11.896Z,92.3
2017-09-09T01:44:12.209Z,92.69
2017-09-09T01:45:12.264Z,92.83
2017-09-09T01:46:12.200Z,92.21
2017-09-09T01:47:12.200Z,92.02
2017-09-09T01:48:12.197Z,92.07
2017-09-09T01:49:11.889Z,92.11
2017-09-09T01:50:12.566Z,93.41
2017-09-09T01:51:12.411Z,92.5
2017-09-09T01:52:12.182Z,93.02
2017-09-09T01:53:12.370Z,92.83
2017-09-09T01:54:11.878Z,92.55
2017-09-09T01:55:13.355Z,93.02
2017-09-09T01:56:12.184Z,92.74
2017-09-09T01:57:12.206Z,92.74
2017-09-09T01:58:12.208Z,92.93
2017-09-09T01:59:12.172Z,92.5
2017-09-09T02:00:13.436Z,92.97
2017-09-09T02:01:11.857Z,92.79
2017-09-09T02:02:12.174Z,92.21
2017-09-09T02:03:11.856Z,91.45
2017-09-09T02:04:11.855Z,91.59
2017-09-09T02:05:12.575Z,91.88
2017-09-09T02:06:12.170Z,92.36
2017-09-09T02:07:11.848Z,92.45
2017-09-09T02:08:12.166Z,92.64
2017-09-09T02:09:12.153Z,92.93
2017-09-09T02:10:12.719Z,91.97
2017-09-09T02:11:11.843Z,92.74
2017-09-09T02:12:11.844Z,92.83
2017-09-09T02:13:12.154Z,92.93
2017-09-09T02:14:11.845Z,92.45
2017-09-09T02:15:13.328Z,92.16
2017-09-09T02:16:12.155Z,92.36
2017-09-09T02:17:12.139Z,92.11
2017-09-09T02:18:11.864Z,92.88
2017-09-09T02:19:11.828Z,92.36
2017-09-09T02:20:12.766Z,91.3
2017-09-09T02:21:12.158Z,91.97
2017-09-09T02:22:12.141Z,91.06
2017-09-09T02:23:12.158Z,91.35
2017-09-09T02:24:12.140Z,91.54
2017-09-09T02:25:12.991Z,91.64
2017-09-09T02:26:11.820Z,91.45
2017-09-09T02:27:11.821Z,91.16
2017-09-09T02:28:12.123Z,91.45
2017-09-09T02:29:11.816Z,91.54
2017-09-09T02:30:12.936Z,90.88
2017-09-09T02:31:12.122Z,90.68
2017-09-09T02:32:12.118Z,91.35
2017-09-09T02:33:12.126Z,91.3
2017-09-09T02:34:12.123Z,91.45
2017-09-09T02:35:13.024Z,91.45
2017-09-09T02:36:12.115Z,91.25
2017-09-09T02:37:12.120Z,91.25
2017-09-09T02:38:11.809Z,91.35
2017-09-09T02:39:12.113Z,91.64
2017-09-09T02:40:12.518Z,91.64
2017-09-09T02:41:11.800Z,91.45
2017-09-09T02:42:11.803Z,91.35
2017-09-09T02:43:12.149Z,91.16
2017-09-09T02:44:12.145Z,90.88
2017-09-09T02:45:13.179Z,90.97
2017-09-09T02:46:12.112Z,90.3
2017-09-09T02:47:12.104Z,90.39
2017-09-09T02:48:12.109Z,90.97
2017-09-09T02:49:12.111Z,91.45
2017-09-09T02:50:13.365Z,90.3
2017-09-09T02:51:11.806Z,90.2
2017-09-09T02:52:11.796Z,89.44
2017-09-09T02:53:12.104Z,89.63
2017-09-09T02:54:12.102Z,90.11
2017-09-09T02:55:12.836Z,90.3
2017-09-09T02:56:12.118Z,90.01
2017-09-09T02:57:11.788Z,89.92
2017-09-09T02:58:12.088Z,89.82
2017-09-09T02:59:11.781Z,89.44
2017-09-09T03:00:12.502Z,89.92
2017-09-09T03:01:12.086Z,90.2
2017-09-09T03:02:12.101Z,90.3
2017-09-09T03:03:12.082Z,90.3
2017-09-09T03:04:12.086Z,89.53
2017-09-09T03:05:13.427Z,90.39
2017-09-09T03:06:12.081Z,90.01
2017-09-09T03:07:12.082Z,90.49
2017-09-09T03:08:11.770Z,89.82
2017-09-09T03:09:12.079Z,90.3
2017-09-09T03:10:13.287Z,90.2
2017-09-09T03:11:12.074Z,90.39
2017-09-09T03:12:12.073Z,89.82
2017-09-09T03:13:11.763Z,89.92
2017-09-09T03:14:12.068Z,90.78
2017-09-09T03:15:12.278Z,91.25
2017-09-09T03:16:11.760Z,91.64
2017-09-09T03:17:11.764Z,92.02
2017-09-09T03:18:12.063Z,92.5
2017-09-09T03:19:11.753Z,91.16
2017-09-09T03:20:12.726Z,91.25
2017-09-09T03:21:12.079Z,90.68
2017-09-09T03:22:12.060Z,91.35
2017-09-09T03:23:12.065Z,92.02
2017-09-09T03:24:12.061Z,91.35
2017-09-09T03:25:13.057Z,91.45
2017-09-09T03:26:12.061Z,91.45
2017-09-09T03:27:11.756Z,90.59
2017-09-09T03:28:12.050Z,91.16
2017-09-09T03:29:11.739Z,91.45
2017-09-09T03:30:13.008Z,91.83
2017-09-09T03:31:12.047Z,91.25
2017-09-09T03:32:12.041Z,91.45
2017-09-09T03:33:12.043Z,91.35
2017-09-09T03:34:11.732Z,90.68
2017-09-09T03:35:12.529Z,90.59
2017-09-09T03:36:12.040Z,90.68
2017-09-09T03:37:11.728Z,90.88
2017-09-09T03:38:12.036Z,90.97
2017-09-09T03:39:11.727Z,91.16
2017-09-09T03:40:12.361Z,91.45
2017-09-09T03:41:12.038Z,91.45
2017-09-09T03:42:12.033Z,91.35
2017-09-09T03:43:12.029Z,90.97
2017-09-09T03:44:12.030Z,91.16
2017-09-09T03:45:12.692Z,90.3
2017-09-09T03:46:12.026Z,90.49
2017-09-09T03:47:12.024Z,91.35
2017-09-09T03:48:11.715Z,91.45
2017-09-09T03:49:12.023Z,91.45
2017-09-09T03:50:13.006Z,91.35
2017-09-09T03:51:12.017Z,91.16
2017-09-09T03:52:12.022Z,91.54
2017-09-09T03:53:12.016Z,91.16
2017-09-09T03:54:12.024Z,91.54
2017-09-09T03:55:12.825Z,90.39
2017-09-09T03:56:12.012Z,90.49
2017-09-09T03:57:11.724Z,90.78
2017-09-09T03:58:12.011Z,91.64
2017-09-09T03:59:12.009Z,91.83
2017-09-09T04:00:12.948Z,91.54
2017-09-09T04:01:12.007Z,91.83
2017-09-09T04:02:12.006Z,91.83
2017-09-09T04:03:12.005Z,91.83
2017-09-09T04:04:11.698Z,92.3
2017-09-09T04:05:12.921Z,92.02
2017-09-09T04:06:12.002Z,92.21
2017-09-09T04:07:12.005Z,92.02
2017-09-09T04:08:12.002Z,92.3
2017-09-09T04:09:11.996Z,92.3
2017-09-09T04:10:12.578Z,92.3
2017-09-09T04:11:11.995Z,92.4
2017-09-09T04:12:11.689Z,92.11
2017-09-09T04:13:11.684Z,91.45
2017-09-09T04:14:11.692Z,91.54
2017-09-09T04:15:12.534Z,91.16
2017-09-09T04:16:11.986Z,91.25
2017-09-09T04:17:11.991Z,90.49
2017-09-09T04:18:11.987Z,91.06
2017-09-09T04:19:11.704Z,91.06
2017-09-09T04:20:13.140Z,90.78
2017-09-09T04:21:11.987Z,90.11
2017-09-09T04:22:11.678Z,90.25
2017-09-09T04:23:11.984Z,90.39
2017-09-09T04:24:11.978Z,90.88
2017-09-09T04:25:12.630Z,90.39
2017-09-09T04:26:11.977Z,90.88
2017-09-09T04:27:11.671Z,90.39
2017-09-09T04:28:11.675Z,90.39
2017-09-09T04:29:11.974Z,90.68
2017-09-09T04:30:12.232Z,90.16
2017-09-09T04:31:11.662Z,90.63
2017-09-09T04:32:11.971Z,90.06
2017-09-09T04:33:11.674Z,90.25
2017-09-09T04:34:11.968Z,90.2
2017-09-09T04:35:12.706Z,90.2
2017-09-09T04:36:11.970Z,91.35
2017-09-09T04:37:11.968Z,91.35
2017-09-09T04:38:11.662Z,91.54
2017-09-09T04:39:11.663Z,91.83
2017-09-09T04:40:12.409Z,92.5
2017-09-09T04:41:11.663Z,92.79
2017-09-09T04:42:11.649Z,92.21
2017-09-09T04:43:11.960Z,92.69
2017-09-09T04:44:11.656Z,93.07
2017-09-09T04:45:13.049Z,92.88
2017-09-09T04:46:11.951Z,92.79
2017-09-09T04:47:11.642Z,92.88
2017-09-09T04:48:11.954Z,92.88
2017-09-09T04:49:11.642Z,91.83
2017-09-09T04:50:13.011Z,92.79
2017-09-09T04:51:11.638Z,92.97
2017-09-09T04:52:11.946Z,92.97
2017-09-09T04:53:11.943Z,91.64
2017-09-09T04:54:11.944Z,92.02
2017-09-09T04:55:12.598Z,92.02
2017-09-09T04:56:11.938Z,91.35
2017-09-09T04:57:11.938Z,91.45
2017-09-09T04:58:11.936Z,91.54
2017-09-09T04:59:11.626Z,91.54
2017-09-09T05:00:12.349Z,90.73
2017-09-09T05:01:11.931Z,90.82
2017-09-09T05:02:11.937Z,89.96
2017-09-09T05:03:11.927Z,90.44
2017-09-09T05:04:11.927Z,90.34
2017-09-09T05:05:12.662Z,89.96
2017-09-09T05:06:11.618Z,90.34
2017-09-09T05:07:11.937Z,90.16
2017-09-09T05:08:11.620Z,90.82
2017-09-09T05:09:11.924Z,90.25
2017-09-09T05:10:12.626Z,89.96
2017-09-09T05:11:11.943Z,90.06
2017-09-09T05:12:11.920Z,89.58
2017-09-09T05:13:11.917Z,90.25
2017-09-09T05:14:11.917Z,90.06
2017-09-09T05:15:12.737Z,90.63
2017-09-09T05:16:11.959Z,91.49
2017-09-09T05:17:11.917Z,91.39
2017-09-09T05:18:11.918Z,91.64
2017-09-09T05:19:11.922Z,92.11
2017-09-09T05:20:13.006Z,91.88
2017-09-09T05:21:11.911Z,91.68
2017-09-09T05:22:11.908Z,91.39
2017-09-09T05:23:11.604Z,91.39
2017-09-09T05:24:11.908Z,91.39
2017-09-09T05:25:12.761Z,90.82
2017-09-09T05:26:11.908Z,90.53
2017-09-09T05:27:11.597Z,90.06
2017-09-09T05:28:11.913Z,89.96
2017-09-09T05:29:11.906Z,90.06
2017-09-09T05:30:12.747Z,89.87
2017-09-09T05:31:11.905Z,90.63
2017-09-09T05:32:11.903Z,90.44
2017-09-09T05:33:11.903Z,90.44
2017-09-09T05:34:11.593Z,90.25
2017-09-09T05:35:12.098Z,89.67
2017-09-09T05:36:11.593Z,89.39
2017-09-09T05:37:11.895Z,89.77
2017-09-09T05:38:11.592Z,89.87
2017-09-09T05:39:11.894Z,90.25
2017-09-09T05:40:12.769Z,90.06
2017-09-09T05:41:11.893Z,90.44
2017-09-09T05:42:11.893Z,89.96
2017-09-09T05:43:11.893Z,90.16
2017-09-09T05:44:11.898Z,89.96
2017-09-09T05:45:12.388Z,90.25
2017-09-09T05:46:11.893Z,90.25
2017-09-09T05:47:11.906Z,89.96
2017-09-09T05:48:11.898Z,89.96
2017-09-09T05:49:11.578Z,89.67
2017-09-09T05:50:13.031Z,89.67
2017-09-09T05:51:11.889Z,89.87
2017-09-09T05:52:11.886Z,89.96
2017-09-09T05:53:11.577Z,90.16
2017-09-09T05:54:11.884Z,89.96
2017-09-09T05:55:12.779Z,89.58
2017-09-09T05:56:11.891Z,89.58
2017-09-09T05:57:11.578Z,90.25
2017-09-09T05:58:11.574Z,90.34
2017-09-09T05:59:11.883Z,90.06
2017-09-09T06:00:13.555Z,90.06
2017-09-09T06:01:11.890Z,89.77
2017-09-09T06:02:11.878Z,89.96
2017-09-09T06:03:11.568Z,89.48
2017-09-09T06:04:11.574Z,89.48
2017-09-09T06:05:13.365Z,89.96
2017-09-09T06:06:11.567Z,89.48
2017-09-09T06:07:11.880Z,89.48
2017-09-09T06:08:11.872Z,89.67
2017-09-09T06:09:11.871Z,89.58
2017-09-09T06:10:15.040Z,89.39
2017-09-09T06:11:11.574Z,89.67
2017-09-09T06:12:11.874Z,89.39
2017-09-09T06:13:11.876Z,89.48
2017-09-09T06:14:11.874Z,89.39
2017-09-09T06:15:13.204Z,89.39
2017-09-09T06:16:11.880Z,89.39
2017-09-09T06:17:11.880Z,89.96
2017-09-09T06:18:11.867Z,90.16
2017-09-09T06:19:11.866Z,89.39
2017-09-09T06:20:12.343Z,90.16
2017-09-09T06:21:11.867Z,90.06
2017-09-09T06:22:11.899Z,89.77
2017-09-09T06:23:11.865Z,89.1
2017-09-09T06:24:11.867Z,89.1
2017-09-09T06:25:12.838Z,88.53
2017-09-09T06:26:11.870Z,88.72
2017-09-09T06:27:11.867Z,89.2
2017-09-09T06:28:11.864Z,89.67
2017-09-09T06:29:11.865Z,89.96
2017-09-09T06:30:12.702Z,90.34
2017-09-09T06:31:11.867Z,90.06
2017-09-09T06:32:11.548Z,90.44
2017-09-09T06:33:11.552Z,89.77
2017-09-09T06:34:11.551Z,89.77
2017-09-09T06:35:12.206Z,89.2
2017-09-09T06:36:11.855Z,88.91
2017-09-09T06:37:11.554Z,88.24
2017-09-09T06:38:11.562Z,88.34
2017-09-09T06:39:11.862Z,88.15
2017-09-09T06:40:12.617Z,87.86
2017-09-09T06:41:11.854Z,87.86
2017-09-09T06:42:11.853Z,87.62
2017-09-09T06:43:11.848Z,87.33
2017-09-09T06:44:11.851Z,87.14
2017-09-09T06:45:12.728Z,87.33
2017-09-09T06:46:11.851Z,87.62
2017-09-09T06:47:11.538Z,88.76
2017-09-09T06:48:11.851Z,88.29
2017-09-09T06:49:11.849Z,88.19
2017-09-09T06:50:12.665Z,88.29
2017-09-09T06:51:11.846Z,88.38
2017-09-09T06:52:11.537Z,88.09
2017-09-09T06:53:11.846Z,88.19
2017-09-09T06:54:11.847Z,88.38
2017-09-09T06:55:12.877Z,87.71
2017-09-09T06:56:11.535Z,88
2017-09-09T06:57:11.541Z,88
2017-09-09T06:58:11.541Z,87.14
2017-09-09T06:59:11.843Z,87.23
2017-09-09T07:00:12.487Z,87.14
2017-09-09T07:01:11.841Z,87.23
2017-09-09T07:02:11.844Z,87.33
2017-09-09T07:03:11.857Z,87.14
2017-09-09T07:04:11.855Z,86.66
2017-09-09T07:05:12.363Z,87.23
2017-09-09T07:06:11.547Z,87.04
2017-09-09T07:07:11.873Z,87.23
2017-09-09T07:08:11.845Z,87.71
2017-09-09T07:09:11.840Z,88.09
2017-09-09T07:10:12.019Z,88.09
2017-09-09T07:11:11.843Z,88
2017-09-09T07:12:11.841Z,88.09
2017-09-09T07:13:11.535Z,87.71
2017-09-09T07:14:11.843Z,88.19
2017-09-09T07:15:12.011Z,88.09
2017-09-09T07:16:11.539Z,88.76
2017-09-09T07:17:11.837Z,88.48
2017-09-09T07:18:11.841Z,88.67
2017-09-09T07:19:11.840Z,88.86
2017-09-09T07:20:12.495Z,88.67
2017-09-09T07:21:11.528Z,89.15
2017-09-09T07:22:11.836Z,90.01
2017-09-09T07:23:11.837Z,90.1
2017-09-09T07:24:11.839Z,89.62
2017-09-09T07:25:12.365Z,90.01
2017-09-09T07:26:11.831Z,90.01
2017-09-09T07:27:11.837Z,90.01
2017-09-09T07:28:11.526Z,89.53
2017-09-09T07:29:11.831Z,90.1
2017-09-09T07:30:12.923Z,90.01
2017-09-09T07:31:11.833Z,90.87
2017-09-09T07:32:11.522Z,91.25
2017-09-09T07:33:11.524Z,91.35
2017-09-09T07:34:11.834Z,91.63
2017-09-09T07:35:12.611Z,92.3
2017-09-09T07:36:11.836Z,92.11
2017-09-09T07:37:11.838Z,92.49
2017-09-09T07:38:11.516Z,92.97
2017-09-09T07:39:11.519Z,93.16
2017-09-09T07:40:12.815Z,93.55
2017-09-09T07:41:11.828Z,93.16
2017-09-09T07:42:11.825Z,93.16
2017-09-09T07:43:11.517Z,93.93
2017-09-09T07:44:11.824Z,93.84
2017-09-09T07:45:12.056Z,93.84
2017-09-09T07:46:11.824Z,93.84
2017-09-09T07:47:11.515Z,92.69
2017-09-09T07:48:11.825Z,92.49
2017-09-09T07:49:11.515Z,91.92
2017-09-09T07:50:12.318Z,92.88
2017-09-09T07:51:11.511Z,92.97
2017-09-09T07:52:11.828Z,92.44
2017-09-09T07:53:11.828Z,92.21
2017-09-09T07:54:11.508Z,92.97
2017-09-09T07:55:13.172Z,93.16
2017-09-09T07:56:11.508Z,93.16
2017-09-09T07:57:11.827Z,93.26
2017-09-09T07:58:11.821Z,93.84
2017-09-09T07:59:11.818Z,93.55
2017-09-09T08:00:12.248Z,93.74
2017-09-09T08:01:11.923Z,93.35
2017-09-09T08:02:11.600Z,93.16
2017-09-09T08:03:11.559Z,93.45
2017-09-09T08:04:11.823Z,94.02
2017-09-09T08:05:12.979Z,94.02
2017-09-09T08:06:11.506Z,94.5
2017-09-09T08:07:11.506Z,93.64
2017-09-09T08:08:11.851Z,93.84
2017-09-09T08:09:11.818Z,94.89
2017-09-09T08:10:12.687Z,95.22
2017-09-09T08:11:11.509Z,95.27
2017-09-09T08:12:11.813Z,95.46
2017-09-09T08:13:11.817Z,95.27
2017-09-09T08:14:11.503Z,96.03
2017-09-09T08:15:12.884Z,96.89
2017-09-09T08:16:11.817Z,96.8
2017-09-09T08:17:11.814Z,97.18
2017-09-09T08:18:11.812Z,96.89
2017-09-09T08:19:11.810Z,96.99
2017-09-09T08:20:12.708Z,97.85
2017-09-09T08:21:11.813Z,97.66
2017-09-09T08:22:11.505Z,96.99
2017-09-09T08:23:11.503Z,97.52
2017-09-09T08:24:11.816Z,97.75
2017-09-09T08:25:12.308Z,98.43
2017-09-09T08:26:11.506Z,98.04
2017-09-09T08:27:11.505Z,98.38
2017-09-09T08:28:11.813Z,98.04
2017-09-09T08:29:11.813Z,97.28
2017-09-09T08:30:12.849Z,97.85
2017-09-09T08:31:11.820Z,98.33
2017-09-09T08:32:11.812Z,98.04
2017-09-09T08:33:11.811Z,98.14
2017-09-09T08:34:11.819Z,97.95
2017-09-09T08:35:12.954Z,98.19
2017-09-09T08:36:11.503Z,98.9
2017-09-09T08:37:11.812Z,99.19
2017-09-09T08:38:11.809Z,99.29
2017-09-09T08:39:11.811Z,99.1
2017-09-09T08:40:12.034Z,98.95
2017-09-09T08:41:11.808Z,99.19
2017-09-09T08:42:11.502Z,99.96
2017-09-09T08:43:11.812Z,99.99
2017-09-09T08:44:11.811Z,99.99
2017-09-09T08:45:12.445Z,99.99
2017-09-09T08:46:11.501Z,99.99
2017-09-09T08:47:11.809Z,99.99
2017-09-09T08:48:11.505Z,99.99
2017-09-09T08:49:11.820Z,99.99
2017-09-09T08:50:12.208Z,99.99
2017-09-09T08:51:11.806Z,99.99
2017-09-09T08:52:11.809Z,99.99
2017-09-09T08:53:11.808Z,99.99
2017-09-09T08:54:11.498Z,99.99
2017-09-09T08:55:12.841Z,99.99
2017-09-09T08:56:11.501Z,99.99
2017-09-09T08:57:11.498Z,99.99
2017-09-09T08:58:11.497Z,99.99
2017-09-09T08:59:11.805Z,99.99
2017-09-09T09:00:12.440Z,99.99
2017-09-09T09:01:11.497Z,99.99
2017-09-09T09:02:11.804Z,99.99
2017-09-09T09:03:11.803Z,99.99
2017-09-09T09:04:11.497Z,99.99
2017-09-09T09:05:12.200Z,99.99
2017-09-09T09:06:11.849Z,99.99
2017-09-09T09:07:11.493Z,99.99
2017-09-09T09:08:11.809Z,99.99
2017-09-09T09:09:11.804Z,99.99
2017-09-09T09:10:12.497Z,99.99
2017-09-09T09:11:11.801Z,99.99
2017-09-09T09:12:11.491Z,99.99
2017-09-09T09:13:11.806Z,99.99
2017-09-09T09:14:11.804Z,99.91
2017-09-09T09:15:12.876Z,99.91
2017-09-09T09:16:11.496Z,99.52
2017-09-09T09:17:11.806Z,98.95
2017-09-09T09:18:11.802Z,99.24
2017-09-09T09:19:11.493Z,98.38
2017-09-09T09:20:12.702Z,98.19
2017-09-09T09:21:11.492Z,98.09
2017-09-09T09:22:11.807Z,98.71
2017-09-09T09:23:11.492Z,98.47
2017-09-09T09:24:11.492Z,98.47
2017-09-09T09:25:12.869Z,98.38
2017-09-09T09:26:11.494Z,98.71
2017-09-09T09:27:11.513Z,98.57
2017-09-09T09:28:11.807Z,99.72
2017-09-09T09:29:11.807Z,99.99
2017-09-09T09:30:12.276Z,99.99
2017-09-09T09:31:11.493Z,99.99
2017-09-09T09:32:11.494Z,99.99
2017-09-09T09:33:11.812Z,99.99
2017-09-09T09:34:11.809Z,99.99
2017-09-09T09:35:12.681Z,99.99
2017-09-09T09:36:11.799Z,99.99
2017-09-09T09:37:11.811Z,99.99
2017-09-09T09:38:11.802Z,99.99
2017-09-09T09:39:11.812Z,99.99
2017-09-09T09:40:12.917Z,99.99
2017-09-09T09:41:11.495Z,99.99
2017-09-09T09:42:11.814Z,99.99
2017-09-09T09:43:11.805Z,99.99
2017-09-09T09:44:11.804Z,99.99
2017-09-09T09:45:12.100Z,99.99
2017-09-09T09:46:11.805Z,99.96
2017-09-09T09:47:11.497Z,99.29
2017-09-09T09:48:11.497Z,98.43
2017-09-09T09:49:11.816Z,98.62
2017-09-09T09:50:12.804Z,97.18
2017-09-09T09:51:11.804Z,96.89
2017-09-09T09:52:11.505Z,96.99
2017-09-09T09:53:11.498Z,96.75
2017-09-09T09:54:11.805Z,95.94
2017-09-09T09:55:12.265Z,95.51
2017-09-09T09:56:11.501Z,95.79
2017-09-09T09:57:11.808Z,94.17
2017-09-09T09:58:11.500Z,94.07
2017-09-09T09:59:11.806Z,93.78
2017-09-09T10:00:12.664Z,92.44
2017-09-09T10:01:11.809Z,91.67
2017-09-09T10:02:11.825Z,90.95
2017-09-09T10:03:11.504Z,90.19
2017-09-09T10:04:11.504Z,89.61
2017-09-09T10:05:12.725Z,89.9
2017-09-09T10:06:11.826Z,89.13
2017-09-09T10:07:11.510Z,89.32
2017-09-09T10:08:11.826Z,88.84
2017-09-09T10:09:11.824Z,89.04
2017-09-09T10:10:12.246Z,89.42
2017-09-09T10:11:11.827Z,89.42
2017-09-09T10:12:11.514Z,90.28
2017-09-09T10:13:11.830Z,90.23
2017-09-09T10:14:11.828Z,88.79
2017-09-09T10:15:12.125Z,88.84
2017-09-09T10:16:11.523Z,89.42
2017-09-09T10:17:11.832Z,90.19
2017-09-09T10:18:11.834Z,90.47
2017-09-09T10:19:11.833Z,89.32
2017-09-09T10:20:11.703Z,89.13
2017-09-09T10:21:11.529Z,89.71
2017-09-09T10:22:11.835Z,89.8
2017-09-09T10:23:11.845Z,90.19
2017-09-09T10:24:11.841Z,89.8
2017-09-09T10:25:12.276Z,90.19
2017-09-09T10:26:11.855Z,90.09
2017-09-09T10:27:11.841Z,89.9
2017-09-09T10:28:11.844Z,90.67
2017-09-09T10:29:11.534Z,90.57
2017-09-09T10:30:12.252Z,90.67
2017-09-09T10:31:11.846Z,91.53
2017-09-09T10:32:11.566Z,92.2
2017-09-09T10:33:11.846Z,93.49
2017-09-09T10:34:11.845Z,92.35
2017-09-09T10:35:12.356Z,92.15
2017-09-09T10:36:11.849Z,91.49
2017-09-09T10:37:11.542Z,90.67
2017-09-09T10:38:11.850Z,90.23
2017-09-09T10:39:11.852Z,90.28
2017-09-09T10:40:12.885Z,90.28
2017-09-09T10:41:11.856Z,89.61
2017-09-09T10:42:11.547Z,90.28
2017-09-09T10:43:11.855Z,90.67
2017-09-09T10:44:11.853Z,89.23
2017-09-09T10:45:12.814Z,89.23
2017-09-09T10:46:11.865Z,88.56
2017-09-09T10:47:11.550Z,87.41
2017-09-09T10:48:11.888Z,87.6
2017-09-09T10:49:11.859Z,87.12
2017-09-09T10:50:12.341Z,86.64
2017-09-09T10:51:11.551Z,86.74
2017-09-09T10:52:11.868Z,87.02
2017-09-09T10:53:11.868Z,87.12
2017-09-09T10:54:11.874Z,87.55
2017-09-09T10:55:12.922Z,86.4
2017-09-09T10:56:11.559Z,85.63
2017-09-09T10:57:11.559Z,85.44
2017-09-09T10:58:11.558Z,85.25
2017-09-09T10:59:11.868Z,85.34
2017-09-09T11:00:12.731Z,84.52
2017-09-09T11:01:11.875Z,83.65
2017-09-09T11:02:11.875Z,83.27
2017-09-09T11:03:11.871Z,84.04
2017-09-09T11:04:11.876Z,83.85
2017-09-09T11:05:12.703Z,84.52
2017-09-09T11:06:11.887Z,83.56
2017-09-09T11:07:11.885Z,82.7
2017-09-09T11:08:11.896Z,82.03
2017-09-09T11:09:11.881Z,82.03
2017-09-09T11:10:12.367Z,81.78
2017-09-09T11:11:11.582Z,81.97
2017-09-09T11:12:11.582Z,80.53
2017-09-09T11:13:11.897Z,80.53
2017-09-09T11:14:11.894Z,80.47
2017-09-09T11:15:12.651Z,79.99
2017-09-09T11:16:11.898Z,79.52
2017-09-09T11:17:11.905Z,80.09
2017-09-09T11:18:11.903Z,79.52
2017-09-09T11:19:11.901Z,79.32
2017-09-09T11:20:13.269Z,78.94
2017-09-09T11:21:11.596Z,79.42
2017-09-09T11:22:11.920Z,79.22
2017-09-09T11:23:11.920Z,80.09
2017-09-09T11:24:11.648Z,78.69
2017-09-09T11:25:12.475Z,78.11
2017-09-09T11:26:11.918Z,78.5
2017-09-09T11:27:11.616Z,77.63
2017-09-09T11:28:11.922Z,77.44
2017-09-09T11:29:11.618Z,77.15
2017-09-09T11:30:12.882Z,77.63
2017-09-09T11:31:11.933Z,77.83
2017-09-09T11:32:11.631Z,77.73
2017-09-09T11:33:11.945Z,77.34
2017-09-09T11:34:11.637Z,76.57
2017-09-09T11:35:12.894Z,77.15
2017-09-09T11:36:11.635Z,76.86
2017-09-09T11:37:11.641Z,77.06
2017-09-09T11:38:11.643Z,77.63
2017-09-09T11:39:11.955Z,76.96
2017-09-09T11:40:12.697Z,76.71
2017-09-09T11:41:11.657Z,76.9
2017-09-09T11:42:11.966Z,75.84
2017-09-09T11:43:11.969Z,75.84
2017-09-09T11:44:11.969Z,76.81
2017-09-09T11:45:12.991Z,75.75
2017-09-09T11:46:12.492Z,75.75
2017-09-09T11:47:11.982Z,75.37
2017-09-09T11:48:11.678Z,75.94
2017-09-09T11:49:11.985Z,75.07
2017-09-09T11:50:13.066Z,75.84
2017-09-09T11:51:11.990Z,74.88
2017-09-09T11:52:11.997Z,74.88
2017-09-09T11:53:11.686Z,75.07
2017-09-09T11:54:12.004Z,75.46
2017-09-09T11:55:13.001Z,74.88
2017-09-09T11:56:12.022Z,74.6
2017-09-09T11:57:12.012Z,74.5
2017-09-09T11:58:11.705Z,74.25
2017-09-09T11:59:12.037Z,72.9
2017-09-09T12:00:12.482Z,73.38
2017-09-09T12:01:11.717Z,73.57
2017-09-09T12:02:11.720Z,73.09
2017-09-09T12:03:12.125Z,73.09
2017-09-09T12:04:11.841Z,73.28
2017-09-09T12:05:12.736Z,73.67
2017-09-09T12:06:12.035Z,73.28
2017-09-09T12:07:12.053Z,72.71
2017-09-09T12:08:12.050Z,73.57
2017-09-09T12:09:11.740Z,73.47
2017-09-09T12:10:13.128Z,73.86
2017-09-09T12:11:12.057Z,74.63
2017-09-09T12:12:12.057Z,73.77
2017-09-09T12:13:11.756Z,74.3
2017-09-09T12:14:12.064Z,75.17
2017-09-09T12:15:12.339Z,75.84
2017-09-09T12:16:13.584Z,75.17
2017-09-09T12:17:11.779Z,74.69
2017-09-09T12:18:11.767Z,75.07
2017-09-09T12:19:12.080Z,74.88
2017-09-09T12:20:12.819Z,73.73
2017-09-09T12:21:12.115Z,74.4
2017-09-09T12:22:11.778Z,73.96
2017-09-09T12:23:11.781Z,74.15
2017-09-09T12:24:12.097Z,74.54
2017-09-09T12:25:12.244Z,75.02
2017-09-09T12:26:12.099Z,74.21
2017-09-09T12:27:12.108Z,74.69
2017-09-09T12:28:11.801Z,76.04
2017-09-09T12:29:12.141Z,75.07
2017-09-09T12:30:12.143Z,75.17
2017-09-09T12:31:12.122Z,75.42
2017-09-09T12:32:12.128Z,76.19
2017-09-09T12:33:12.120Z,76.29
2017-09-09T12:34:11.822Z,76.39
2017-09-09T12:35:13.016Z,77.44
2017-09-09T12:36:12.126Z,76.86
2017-09-09T12:37:12.129Z,76.86
2017-09-09T12:38:12.132Z,77.53
2017-09-09T12:39:11.822Z,77.31
2017-09-09T12:40:13.234Z,78.17
2017-09-09T12:41:12.138Z,78.08
2017-09-09T12:42:12.144Z,78.08
2017-09-09T12:43:12.142Z,78.23
2017-09-09T12:44:12.141Z,78.7
2017-09-09T12:45:13.077Z,79.38
2017-09-09T12:46:12.648Z,80.15
2017-09-09T12:47:12.152Z,79.96
2017-09-09T12:48:12.153Z,79.38
2017-09-09T12:49:12.162Z,79.96
2017-09-09T12:50:13.300Z,80.05
2017-09-09T12:51:12.157Z,79.91
2017-09-09T12:52:12.157Z,79.63
2017-09-09T12:53:12.160Z,79.96
2017-09-09T12:54:11.852Z,80.82